createdAt,value
2023-03-10T00:01:27.572Z,0.70
2023-03-10T00:03:57.633Z,0.70
2023-03-10T00:06:26.791Z,0.70
2023-03-10T00:08:54.440Z,0.70
2023-03-10T00:11:21.526Z,0.70
2023-03-10T00:13:48.307Z,0.70
2023-03-10T00:16:27.388Z,0.70
2023-03-10T00:18:55.356Z,0.70
2023-03-10T00:21:24.741Z,0.70
2023-03-10T00:23:52.356Z,0.70
2023-03-10T00:26:22.469Z,0.70
2023-03-10T00:28:49.808Z,0.70
2023-03-10T00:31:19.947Z,0.70
2023-03-10T00:33:47.730Z,0.70
2023-03-10T00:36:20.714Z,0.70
2023-03-10T00:38:49.987Z,0.70
2023-03-10T00:41:26.339Z,0.70
2023-03-10T00:44:00.916Z,0.70
2023-03-10T00:46:30.134Z,0.70
2023-03-10T00:48:57.099Z,0.70
2023-03-10T00:51:24.213Z,0.70
2023-03-10T00:53:51.426Z,0.70
2023-03-10T00:56:19.805Z,0.70
2023-03-10T00:58:52.502Z,0.70
2023-03-10T01:01:30.998Z,0.70
2023-03-10T01:04:00.546Z,0.70
2023-03-10T01:06:27.852Z,0.70
2023-03-10T01:08:54.986Z,0.70
2023-03-10T01:11:27.435Z,0.70
2023-03-10T01:13:57.892Z,0.70
2023-03-10T01:16:25.319Z,0.70
2023-03-10T01:18:52.163Z,0.80
2023-03-10T01:21:24.436Z,0.70
2023-03-10T01:23:51.633Z,0.70
2023-03-10T01:26:19.118Z,0.70
2023-03-10T01:28:47.741Z,0.70
2023-03-10T01:31:14.819Z,0.70
2023-03-10T01:33:42.938Z,0.80
2023-03-10T01:36:11.656Z,0.80
2023-03-10T01:38:39.910Z,0.80
2023-03-10T01:41:08.268Z,0.80
2023-03-10T01:43:41.183Z,0.70
2023-03-10T01:46:42.043Z,0.80
2023-03-10T01:49:20.490Z,0.80
2023-03-10T01:51:51.513Z,0.80
2023-03-10T01:54:28.040Z,0.80
2023-03-10T01:56:56.372Z,0.80
2023-03-10T01:59:25.570Z,0.70
2023-03-10T02:01:53.061Z,0.80
2023-03-10T02:04:33.954Z,0.80
2023-03-10T02:07:03.645Z,0.80
2023-03-10T02:09:33.020Z,0.80
2023-03-10T02:12:02.604Z,0.80
2023-03-10T02:14:31.778Z,0.80
2023-03-10T02:16:59.522Z,0.80
2023-03-10T02:20:05.158Z,0.80
2023-03-10T02:22:33.062Z,0.80
2023-03-10T02:25:20.076Z,0.80
2023-03-10T02:27:47.941Z,0.80
2023-03-10T02:30:29.545Z,0.80
2023-03-10T02:33:01.523Z,0.80
2023-03-10T02:35:28.550Z,0.80
2023-03-10T02:37:55.603Z,0.80
2023-03-10T02:40:34.294Z,0.80
2023-03-10T02:43:23.028Z,0.80
2023-03-10T02:45:51.442Z,0.80
2023-03-10T02:48:30.990Z,0.80
2023-03-10T02:50:59.415Z,0.80
2023-03-10T02:53:29.520Z,0.90
2023-03-10T02:55:58.615Z,0.80
2023-03-10T02:58:27.700Z,0.90
2023-03-10T03:00:56.294Z,0.90
2023-03-10T03:03:23.658Z,0.90
2023-03-10T03:05:51.158Z,0.90
2023-03-10T03:08:19.136Z,0.90
2023-03-10T03:10:46.647Z,0.90
2023-03-10T03:13:13.722Z,0.90
2023-03-10T03:15:41.394Z,0.90
2023-03-10T03:18:09.004Z,1.00
2023-03-10T03:20:38.711Z,1.00
2023-03-10T03:23:05.711Z,1.00
2023-03-10T03:25:36.376Z,1.00
2023-03-10T03:28:04.759Z,1.00
2023-03-10T03:30:32.663Z,1.00
2023-03-10T03:33:01.425Z,1.00
2023-03-10T03:35:31.733Z,1.00
2023-03-10T03:37:59.225Z,1.00
2023-03-10T03:40:28.085Z,1.10
2023-03-10T03:42:55.489Z,1.10
2023-03-10T03:45:26.227Z,1.10
2023-03-10T03:47:55.649Z,1.10
2023-03-10T03:50:23.440Z,1.10
2023-03-10T03:52:50.373Z,1.10
2023-03-10T03:55:19.596Z,1.10
2023-03-10T03:57:47.725Z,1.10
2023-03-10T04:00:21.319Z,1.10
2023-03-10T04:02:48.552Z,1.10
2023-03-10T04:05:17.156Z,1.10
2023-03-10T04:07:44.624Z,1.10
2023-03-10T04:10:15.403Z,1.20
2023-03-10T04:12:42.189Z,1.20
2023-03-10T04:15:09.406Z,1.20
2023-03-10T04:17:36.480Z,1.20
2023-03-10T04:20:07.841Z,1.20
2023-03-10T04:22:36.266Z,1.20
2023-03-10T04:25:04.172Z,1.30
2023-03-10T04:27:31.297Z,1.30
2023-03-10T04:29:58.572Z,1.30
2023-03-10T04:32:25.700Z,1.30
2023-03-10T04:34:53.108Z,1.30
2023-03-10T04:37:21.815Z,1.30
2023-03-10T04:39:49.121Z,1.30
2023-03-10T04:42:16.128Z,1.30
2023-03-10T04:44:43.940Z,1.40
2023-03-10T04:47:10.738Z,1.40
2023-03-10T04:49:38.683Z,1.40
2023-03-10T04:52:06.066Z,1.40
2023-03-10T04:54:32.810Z,1.50
2023-03-10T04:56:59.654Z,1.50
2023-03-10T04:59:26.624Z,1.50
2023-03-10T05:01:53.781Z,1.50
2023-03-10T05:04:20.891Z,1.50
2023-03-10T05:06:52.310Z,1.50
2023-03-10T05:09:19.453Z,1.50
2023-03-10T05:11:46.344Z,1.50
2023-03-10T05:14:14.003Z,1.50
2023-03-10T05:16:40.997Z,1.60
2023-03-10T05:19:07.842Z,1.50
2023-03-10T05:21:34.848Z,1.60
2023-03-10T05:24:02.199Z,1.60
2023-03-10T05:26:33.474Z,1.60
2023-03-10T05:29:01.753Z,1.60
2023-03-10T05:31:28.989Z,1.60
2023-03-10T05:33:56.118Z,1.60
2023-03-10T05:36:23.519Z,1.70
2023-03-10T05:38:51.058Z,1.70
2023-03-10T05:41:18.265Z,1.70
2023-03-10T05:43:45.289Z,1.80
2023-03-10T05:46:12.923Z,1.80
2023-03-10T05:48:40.264Z,1.90
2023-03-10T05:51:10.760Z,1.90
2023-03-10T05:53:38.733Z,1.90
2023-03-10T05:56:13.992Z,1.90
2023-03-10T05:58:42.808Z,2.00
2023-03-10T06:01:10.710Z,2.00
2023-03-10T06:03:39.163Z,2.10
2023-03-10T06:06:07.021Z,2.10
2023-03-10T06:08:34.354Z,2.20
2023-03-10T06:11:01.514Z,2.20
2023-03-10T06:13:28.522Z,2.20
2023-03-10T06:16:02.359Z,2.30
2023-03-10T06:18:29.415Z,2.30
2023-03-10T06:20:56.747Z,2.30
2023-03-10T06:23:25.080Z,2.40
2023-03-10T06:26:06.913Z,2.40
2023-03-10T06:28:36.675Z,2.40
2023-03-10T06:31:27.580Z,2.50
2023-03-10T06:33:54.531Z,2.50
2023-03-10T06:36:22.380Z,2.50
2023-03-10T06:38:49.651Z,2.60
2023-03-10T06:41:17.467Z,2.60
2023-03-10T06:43:44.615Z,2.60
2023-03-10T06:46:12.579Z,2.70
2023-03-10T06:48:40.747Z,2.80
2023-03-10T06:51:10.387Z,2.90
2023-03-10T06:53:37.296Z,3.00
2023-03-10T06:56:07.509Z,3.20
2023-03-10T06:58:36.940Z,3.20
2023-03-10T07:01:05.812Z,3.30
2023-03-10T07:03:33.114Z,3.30
2023-03-10T07:06:00.524Z,3.40
2023-03-10T07:08:28.898Z,3.40
2023-03-10T07:10:56.051Z,3.40
2023-03-10T07:13:22.870Z,3.40
2023-03-10T07:15:50.162Z,3.50
2023-03-10T07:18:17.472Z,3.50
2023-03-10T07:20:45.725Z,3.50
2023-03-10T07:23:12.796Z,3.60
2023-03-10T07:25:40.013Z,3.60
2023-03-10T07:28:09.073Z,3.70
2023-03-10T07:30:36.711Z,3.80
2023-03-10T07:33:04.103Z,3.90
2023-03-10T07:35:31.130Z,4.00
2023-03-10T07:37:58.255Z,4.10
2023-03-10T07:40:25.257Z,4.20
2023-03-10T07:42:54.820Z,4.30
2023-03-10T07:45:26.315Z,4.30
2023-03-10T07:47:55.009Z,4.50
2023-03-10T07:50:22.696Z,4.50
2023-03-10T07:52:49.699Z,4.60
2023-03-10T07:55:18.137Z,4.70
2023-03-10T07:57:44.969Z,4.70
2023-03-10T08:00:12.918Z,4.80
2023-03-10T08:02:40.912Z,4.80
2023-03-10T08:05:10.913Z,4.90
2023-03-10T08:07:38.228Z,4.90
2023-03-10T08:10:06.237Z,5.00
2023-03-10T08:12:33.688Z,4.90
2023-03-10T08:15:00.680Z,4.90
2023-03-10T08:17:30.937Z,4.90
2023-03-10T08:19:58.669Z,4.90
2023-03-10T08:22:26.464Z,4.80
2023-03-10T08:24:53.788Z,4.80
2023-03-10T08:27:21.730Z,4.80
2023-03-10T08:29:48.792Z,4.80
2023-03-10T08:32:15.694Z,4.80
2023-03-10T08:34:43.206Z,4.80
2023-03-10T08:37:10.821Z,4.90
2023-03-10T08:39:39.037Z,5.00
2023-03-10T08:42:09.593Z,5.10
2023-03-10T08:44:36.565Z,5.20
2023-03-10T08:47:04.489Z,5.40
2023-03-10T08:49:31.527Z,5.50
2023-03-10T08:52:00.094Z,5.70
2023-03-10T08:54:27.036Z,5.80
2023-03-10T08:56:53.947Z,5.90
2023-03-10T08:59:20.997Z,6.00
2023-03-10T09:01:48.026Z,6.10
2023-03-10T09:04:15.019Z,6.20
2023-03-10T09:06:41.888Z,6.20
2023-03-10T09:09:10.455Z,6.20
2023-03-10T09:11:40.065Z,6.30
2023-03-10T09:14:08.223Z,6.30
2023-03-10T09:16:35.619Z,6.40
2023-03-10T09:19:02.655Z,6.40
2023-03-10T09:21:33.386Z,6.50
2023-03-10T09:24:01.475Z,6.50
2023-03-10T09:26:28.441Z,6.60
2023-03-10T09:28:57.380Z,6.50
2023-03-10T09:31:36.233Z,6.60
2023-03-10T09:34:03.610Z,6.60
2023-03-10T09:36:30.654Z,6.60
2023-03-10T09:38:58.771Z,6.50
2023-03-10T09:41:48.412Z,6.50
2023-03-10T09:44:39.013Z,6.40
2023-03-10T09:47:26.789Z,6.40
2023-03-10T09:50:17.990Z,6.40
2023-03-10T09:53:07.415Z,6.40
2023-03-10T09:55:48.025Z,6.50
2023-03-10T09:58:29.168Z,6.60
2023-03-10T10:00:56.173Z,6.60
2023-03-10T10:03:31.795Z,6.80
2023-03-10T10:06:01.272Z,6.90
2023-03-10T10:08:33.125Z,7.10
2023-03-10T10:11:01.478Z,7.30
2023-03-10T10:13:30.587Z,7.50
2023-03-10T10:16:33.415Z,7.70
2023-03-10T10:19:05.517Z,7.90
2023-03-10T10:21:43.218Z,8.20
2023-03-10T10:24:10.434Z,8.30
2023-03-10T10:26:37.348Z,8.50
2023-03-10T10:29:17.044Z,8.60
2023-03-10T10:32:11.373Z,8.70
2023-03-10T10:34:44.062Z,8.80
2023-03-10T10:37:36.231Z,8.90
2023-03-10T10:40:26.920Z,9.00
2023-03-10T10:43:00.923Z,9.00
2023-03-10T10:45:37.000Z,9.10
2023-03-10T10:48:04.856Z,9.20
2023-03-10T10:50:37.311Z,9.30
2023-03-10T10:53:13.639Z,9.40
2023-03-10T10:55:41.603Z,9.50
2023-03-10T10:58:28.636Z,9.70
2023-03-10T11:01:01.791Z,9.90
2023-03-10T11:03:34.815Z,10.10
2023-03-10T11:06:12.199Z,10.30
2023-03-10T11:08:40.747Z,10.40
2023-03-10T11:11:07.514Z,10.60
2023-03-10T11:13:51.238Z,10.80
2023-03-10T11:16:31.880Z,10.90
2023-03-10T11:19:16.474Z,10.90
2023-03-10T11:21:48.386Z,10.90
2023-03-10T11:24:21.046Z,10.90
2023-03-10T11:26:57.636Z,10.90
2023-03-10T11:29:43.878Z,10.80
2023-03-10T11:32:58.416Z,10.80
2023-03-10T11:35:32.420Z,10.90
2023-03-10T11:38:24.298Z,10.90
2023-03-10T11:40:58.423Z,11.00
2023-03-10T11:43:57.133Z,11.10
2023-03-10T11:46:25.586Z,11.30
2023-03-10T11:49:15.647Z,11.50
2023-03-10T11:51:47.767Z,11.70
2023-03-10T11:54:17.724Z,12.00
2023-03-10T11:56:45.921Z,12.20
2023-03-10T11:59:22.654Z,12.40
2023-03-10T12:02:05.234Z,12.60
2023-03-10T12:04:53.963Z,12.80
2023-03-10T12:07:32.068Z,12.80
2023-03-10T12:10:00.974Z,12.80
2023-03-10T12:12:39.721Z,12.70
2023-03-10T12:15:11.848Z,12.60
2023-03-10T12:17:40.544Z,12.60
2023-03-10T12:20:13.151Z,12.60
2023-03-10T12:22:45.408Z,12.60
2023-03-10T12:25:38.129Z,12.60
2023-03-10T12:28:17.056Z,12.50
2023-03-10T12:31:12.522Z,12.50
2023-03-10T12:33:42.059Z,12.60
2023-03-10T12:36:16.566Z,12.70
2023-03-10T12:39:00.852Z,12.80
2023-03-10T12:41:27.793Z,12.90
2023-03-10T12:44:02.961Z,13.10
2023-03-10T12:46:47.450Z,13.30
2023-03-10T12:49:33.042Z,13.50
2023-03-10T12:52:18.150Z,13.80
2023-03-10T12:55:17.238Z,14.10
2023-03-10T12:57:54.598Z,14.40
2023-03-10T13:00:54.485Z,14.60
2023-03-10T13:03:44.555Z,14.70
2023-03-10T13:06:13.164Z,14.70
2023-03-10T13:08:39.903Z,14.70
2023-03-10T13:11:41.352Z,14.60
2023-03-10T13:14:16.417Z,14.50
2023-03-10T13:17:03.102Z,14.40
2023-03-10T13:19:33.995Z,14.20
2023-03-10T13:22:01.924Z,14.10
2023-03-10T13:24:31.504Z,14.00
2023-03-10T13:27:14.641Z,13.80
2023-03-10T13:29:58.193Z,13.80
2023-03-10T13:32:25.838Z,13.70
2023-03-10T13:34:53.433Z,13.60
2023-03-10T13:37:20.201Z,13.60
2023-03-10T13:39:47.000Z,13.60
2023-03-10T13:42:42.927Z,13.60
2023-03-10T13:45:21.896Z,13.70
2023-03-10T13:47:49.547Z,13.70
2023-03-10T13:50:17.343Z,13.80
2023-03-10T13:52:59.593Z,13.80
2023-03-10T13:55:28.640Z,13.90
2023-03-10T13:57:56.763Z,13.80
2023-03-10T14:00:25.926Z,13.90
2023-03-10T14:02:53.696Z,13.90
2023-03-10T14:05:46.459Z,14.00
2023-03-10T14:08:20.835Z,14.00
2023-03-10T14:10:47.795Z,14.10
2023-03-10T14:13:40.424Z,14.10
2023-03-10T14:16:07.809Z,14.00
2023-03-10T14:18:36.522Z,14.00
2023-03-10T14:21:32.624Z,14.00
2023-03-10T14:24:11.680Z,14.00
2023-03-10T14:26:39.560Z,14.00
2023-03-10T14:29:26.759Z,14.10
2023-03-10T14:31:53.499Z,14.20
2023-03-10T14:34:20.264Z,14.40
2023-03-10T14:36:46.984Z,14.40
2023-03-10T14:39:14.436Z,14.50
2023-03-10T14:41:41.175Z,14.60
2023-03-10T14:44:10.485Z,14.60
2023-03-10T14:46:37.533Z,14.50
2023-03-10T14:49:07.825Z,14.50
2023-03-10T14:51:36.418Z,14.50
2023-03-10T14:54:03.789Z,14.40
2023-03-10T14:56:31.592Z,14.50
2023-03-10T14:59:02.109Z,14.50
2023-03-10T15:01:29.419Z,14.40
2023-03-10T15:03:56.356Z,14.40
2023-03-10T15:06:23.069Z,14.40
2023-03-10T15:08:49.770Z,14.20
2023-03-10T15:11:24.006Z,14.20
2023-03-10T15:13:57.912Z,14.10
2023-03-10T15:16:24.661Z,14.00
2023-03-10T15:18:53.141Z,13.90
2023-03-10T15:21:20.104Z,13.80
2023-03-10T15:23:46.840Z,13.70
2023-03-10T15:26:13.810Z,13.70
2023-03-10T15:28:40.596Z,13.60
2023-03-10T15:31:07.421Z,13.50
2023-03-10T15:33:34.235Z,13.50
2023-03-10T15:36:01.088Z,13.40
2023-03-10T15:38:27.893Z,13.40
2023-03-10T15:40:54.618Z,13.30
2023-03-10T15:43:21.417Z,13.30
2023-03-10T15:45:50.599Z,13.30
2023-03-10T15:48:18.037Z,13.20
2023-03-10T15:50:48.722Z,13.20
2023-03-10T15:53:16.142Z,13.20
2023-03-10T15:55:43.065Z,13.10
2023-03-10T15:58:11.449Z,13.10
2023-03-10T16:00:38.208Z,13.00
2023-03-10T16:03:04.917Z,12.90
2023-03-10T16:05:31.648Z,12.90
2023-03-10T16:07:58.380Z,12.90
2023-03-10T16:10:25.154Z,12.80
2023-03-10T16:12:52.070Z,12.80
2023-03-10T16:15:18.871Z,12.70
2023-03-10T16:17:45.911Z,12.60
2023-03-10T16:20:13.896Z,12.60
2023-03-10T16:22:43.000Z,12.50
2023-03-10T16:25:16.310Z,12.50
2023-03-10T16:27:44.406Z,12.40
2023-03-10T16:30:12.465Z,12.30
2023-03-10T16:32:39.278Z,12.20
2023-03-10T16:35:06.831Z,12.20
2023-03-10T16:37:33.566Z,12.20
2023-03-10T16:40:00.341Z,12.10
2023-03-10T16:42:27.075Z,12.10
2023-03-10T16:44:56.960Z,11.90
2023-03-10T16:47:24.004Z,12.00
2023-03-10T16:49:50.793Z,11.90
2023-03-10T16:52:18.202Z,11.80
2023-03-10T16:54:46.635Z,11.70
2023-03-10T16:57:14.688Z,11.60
2023-03-10T16:59:44.581Z,11.60
2023-03-10T17:02:16.552Z,11.60
2023-03-10T17:04:43.488Z,11.50
2023-03-10T17:07:10.455Z,11.40
2023-03-10T17:09:38.048Z,11.30
2023-03-10T17:12:05.641Z,11.20
2023-03-10T17:14:32.746Z,11.10
2023-03-10T17:17:00.370Z,11.10
2023-03-10T17:19:30.152Z,10.90
2023-03-10T17:21:58.270Z,10.80
2023-03-10T17:24:25.476Z,10.70
2023-03-10T17:26:52.671Z,10.70
2023-03-10T17:29:19.719Z,10.60
2023-03-10T17:31:50.410Z,10.50
2023-03-10T17:34:18.645Z,10.40
2023-03-10T17:36:46.713Z,10.30
2023-03-10T17:39:19.176Z,10.20
2023-03-10T17:41:46.886Z,10.20
2023-03-10T17:44:13.912Z,10.10
2023-03-10T17:46:43.764Z,10.00
2023-03-10T17:49:12.580Z,9.90
2023-03-10T17:51:44.347Z,9.90
2023-03-10T17:54:13.148Z,9.80
2023-03-10T17:56:40.109Z,9.70
2023-03-10T17:59:06.915Z,9.60
2023-03-10T18:01:34.105Z,9.60
2023-03-10T18:04:01.702Z,9.50
2023-03-10T18:06:31.622Z,9.40
2023-03-10T18:08:59.952Z,9.40
2023-03-10T18:11:28.268Z,9.30
2023-03-10T18:13:55.424Z,9.30
2023-03-10T18:16:25.299Z,9.30
2023-03-10T18:18:52.694Z,9.20
2023-03-10T18:21:20.583Z,9.20
2023-03-10T18:23:48.183Z,9.20
2023-03-10T18:26:18.181Z,9.20
2023-03-10T18:28:45.307Z,9.10
2023-03-10T18:31:21.862Z,9.10
2023-03-10T18:33:48.970Z,9.00
2023-03-10T18:36:17.210Z,8.90
2023-03-10T18:38:45.054Z,8.80
2023-03-10T18:41:12.143Z,8.80
2023-03-10T18:43:39.375Z,8.80
2023-03-10T18:46:07.061Z,8.70
2023-03-10T18:48:33.838Z,8.70
2023-03-10T18:51:01.112Z,8.70
2023-03-10T18:53:28.593Z,8.60
2023-03-10T18:55:56.084Z,8.60
2023-03-10T18:58:22.849Z,8.50
2023-03-10T19:00:50.284Z,8.50
2023-03-10T19:03:18.179Z,8.50
2023-03-10T19:05:45.236Z,8.50
2023-03-10T19:08:12.196Z,8.40
2023-03-10T19:10:39.547Z,8.40
2023-03-10T19:13:07.704Z,8.30
2023-03-10T19:15:36.586Z,8.30
2023-03-10T19:18:03.962Z,8.30
2023-03-10T19:20:30.858Z,8.40
2023-03-10T19:22:57.653Z,8.40
2023-03-10T19:25:24.574Z,8.40
2023-03-10T19:27:51.319Z,8.50
2023-03-10T19:30:22.905Z,8.50
2023-03-10T19:32:50.068Z,8.60
2023-03-10T19:35:19.027Z,8.60
2023-03-10T19:37:47.154Z,8.60
2023-03-10T19:40:17.169Z,8.70
2023-03-10T19:42:44.848Z,8.70
2023-03-10T19:45:14.031Z,8.70
2023-03-10T19:47:41.663Z,8.80
2023-03-10T19:50:10.683Z,8.80
2023-03-10T19:52:39.059Z,8.90
2023-03-10T19:55:09.588Z,8.90
2023-03-10T19:57:37.026Z,9.00
2023-03-10T20:00:07.276Z,9.00
2023-03-10T20:02:34.138Z,9.00
2023-03-10T20:05:00.843Z,9.00
2023-03-10T20:07:27.563Z,9.10
2023-03-10T20:09:54.344Z,9.10
2023-03-10T20:12:21.301Z,9.10
2023-03-10T20:14:48.257Z,9.10
2023-03-10T20:17:16.884Z,9.10
2023-03-10T20:19:46.559Z,9.10
2023-03-10T20:22:15.197Z,9.10
2023-03-10T20:24:42.064Z,9.10
2023-03-10T20:27:08.836Z,9.10
2023-03-10T20:29:35.545Z,9.10
2023-03-10T20:32:04.324Z,9.10
2023-03-10T20:34:31.836Z,9.20
2023-03-10T20:36:58.551Z,9.20
2023-03-10T20:39:25.385Z,9.20
2023-03-10T20:41:52.140Z,9.30
2023-03-10T20:44:19.202Z,9.30
2023-03-10T20:46:46.366Z,9.30
2023-03-10T20:49:13.351Z,9.30
2023-03-10T20:51:40.449Z,9.30
2023-03-10T20:54:07.906Z,9.30
2023-03-10T20:56:34.680Z,9.20
2023-03-10T20:59:01.843Z,9.20
2023-03-10T21:01:29.565Z,9.20
2023-03-10T21:03:58.503Z,9.20
2023-03-10T21:06:27.005Z,9.10
2023-03-10T21:08:53.863Z,9.10
2023-03-10T21:11:21.098Z,9.10
2023-03-10T21:13:47.935Z,9.10
2023-03-10T21:16:14.729Z,9.10
2023-03-10T21:18:41.537Z,9.00
2023-03-10T21:21:09.708Z,9.10
2023-03-10T21:23:37.826Z,9.10
2023-03-10T21:26:13.446Z,9.10
2023-03-10T21:28:41.224Z,9.10
2023-03-10T21:31:08.431Z,9.10
2023-03-10T21:33:35.661Z,9.10
2023-03-10T21:36:02.974Z,9.10
2023-03-10T21:38:29.693Z,9.00
2023-03-10T21:40:57.525Z,9.00
2023-03-10T21:43:27.259Z,9.00
2023-03-10T21:45:55.151Z,9.00
2023-03-10T21:48:21.970Z,9.00
2023-03-10T21:50:48.875Z,9.00
2023-03-10T21:53:15.915Z,9.00
2023-03-10T21:55:42.858Z,9.10
2023-03-10T21:58:09.670Z,9.10
2023-03-10T22:00:36.772Z,9.10
2023-03-10T22:03:05.374Z,9.10
2023-03-10T22:05:32.411Z,9.10
2023-03-10T22:07:59.455Z,9.10
2023-03-10T22:10:26.230Z,9.10
2023-03-10T22:12:53.090Z,9.10
2023-03-10T22:15:23.254Z,9.20
2023-03-10T22:17:50.834Z,9.20
2023-03-10T22:20:23.609Z,9.20
2023-03-10T22:22:50.836Z,9.20
2023-03-10T22:25:18.375Z,9.20
2023-03-10T22:27:49.254Z,9.20
2023-03-10T22:30:16.319Z,9.20
2023-03-10T22:32:43.474Z,9.30
2023-03-10T22:35:10.795Z,9.30
2023-03-10T22:37:38.968Z,9.30
2023-03-10T22:40:10.220Z,9.30
2023-03-10T22:42:38.467Z,9.30
2023-03-10T22:45:07.660Z,9.30
2023-03-10T22:47:34.556Z,9.40
2023-03-10T22:50:01.443Z,9.40
2023-03-10T22:52:28.164Z,9.50
2023-03-10T22:54:55.108Z,9.50
2023-03-10T22:57:21.876Z,9.60
2023-03-10T22:59:48.725Z,9.60
2023-03-10T23:02:15.561Z,9.60
2023-03-10T23:04:44.383Z,9.60
2023-03-10T23:07:11.441Z,9.70
2023-03-10T23:09:38.294Z,9.70
2023-03-10T23:12:05.618Z,9.60
2023-03-10T23:14:32.596Z,9.60
2023-03-10T23:16:59.627Z,9.60
2023-03-10T23:19:27.705Z,9.60
2023-03-10T23:21:54.519Z,9.60
2023-03-10T23:24:22.231Z,9.60
2023-03-10T23:26:49.176Z,9.60
2023-03-10T23:29:17.187Z,9.60
2023-03-10T23:31:44.380Z,9.60
2023-03-10T23:34:11.185Z,9.60
2023-03-10T23:36:38.121Z,9.50
2023-03-10T23:39:05.437Z,9.50
2023-03-10T23:41:32.328Z,9.50
2023-03-10T23:43:59.169Z,9.50
2023-03-10T23:46:26.053Z,9.50
2023-03-10T23:48:52.870Z,9.50
2023-03-10T23:51:19.682Z,9.50
2023-03-10T23:53:46.685Z,9.50
2023-03-10T23:56:13.779Z,9.50
2023-03-10T23:58:40.779Z,9.50
